Time;durP1;ratioP1;P1;durP2;ratioP2;P2;SDS_P1;SDS_P2;PMS_P1;PMS_P2;Temp;Humidity;BMP_temperature;BMP_pressure;BME280_temperature;BME280_humidity;BME280_pressure;Samples;Min_cycle;Max_cycle;Signal;HPM_P1;HPM_P2
2021/12/22 00:01:27;;;;;;;19.05;14.40;;;-0.10;99.90;;;;;;5064108;28;20057;-76
2021/12/22 00:03:54;;;;;;;22.58;14.65;;;-0.20;99.90;;;;;;5065860;28;20102;-76
2021/12/22 00:06:23;;;;;;;19.33;13.63;;;-0.20;99.90;;;;;;5058627;28;20048;-76
2021/12/22 00:08:50;;;;;;;19.70;14.60;;;-0.10;99.90;;;;;;5067734;28;20106;-76
2021/12/22 00:11:16;;;;;;;20.55;13.80;;;-0.10;99.90;;;;;;5062086;28;20438;-76
2021/12/22 00:13:42;;;;;;;17.67;14.05;;;-0.20;99.90;;;;;;5067501;28;20036;-76
2021/12/22 00:16:11;;;;;;;17.45;13.13;;;-0.20;99.90;;;;;;5067596;28;20102;-75
2021/12/22 00:18:37;;;;;;;18.75;13.77;;;-0.20;99.90;;;;;;5062241;28;20045;-76
2021/12/22 00:21:03;;;;;;;21.67;14.55;;;-0.20;99.90;;;;;;5060737;28;20049;-76
2021/12/22 00:23:30;;;;;;;18.55;13.82;;;-0.20;99.90;;;;;;5063341;28;20464;-76
2021/12/22 00:25:56;;;;;;;19.67;13.57;;;-0.20;99.90;;;;;;5066269;28;20178;-76
2021/12/22 00:28:24;;;;;;;15.30;12.02;;;-0.30;99.90;;;;;;5062007;28;20037;-76
2021/12/22 00:30:51;;;;;;;19.38;13.60;;;-0.30;99.90;;;;;;5063694;28;20067;-76
2021/12/22 00:33:19;;;;;;;17.02;13.48;;;-0.40;99.90;;;;;;5063508;28;20416;-76
2021/12/22 00:35:45;;;;;;;16.38;13.50;;;-0.40;99.90;;;;;;5060795;28;20075;-76
2021/12/22 00:38:14;;;;;;;16.95;12.05;;;-0.40;99.90;;;;;;5062894;28;20048;-76
2021/12/22 00:40:44;;;;;;;19.88;13.35;;;-0.40;99.90;;;;;;5065751;28;20062;-76
2021/12/22 00:43:10;;;;;;;19.40;12.70;;;-0.40;99.90;;;;;;5066963;28;20111;-76
2021/12/22 00:45:37;;;;;;;16.77;13.18;;;-0.50;99.90;;;;;;5065249;28;20048;-76
2021/12/22 00:48:04;;;;;;;18.90;11.68;;;-0.40;99.90;;;;;;5064066;28;20040;-76
2021/12/22 00:50:30;;;;;;;18.55;12.23;;;-0.40;99.90;;;;;;5066774;28;20125;-76
2021/12/22 00:52:56;;;;;;;15.68;12.57;;;-0.40;99.90;;;;;;5065569;28;20588;-76
2021/12/22 00:55:22;;;;;;;18.08;12.93;;;-0.50;99.90;;;;;;5070441;28;20127;-76
2021/12/22 00:57:49;;;;;;;16.88;12.15;;;-0.50;99.90;;;;;;5069512;28;20150;-76
2021/12/22 01:00:16;;;;;;;15.88;11.32;;;-0.50;99.90;;;;;;5062952;28;20049;-76
2021/12/22 01:02:43;;;;;;;17.13;12.40;;;-0.50;99.90;;;;;;5064466;28;20049;-76
2021/12/22 01:05:12;;;;;;;14.10;11.02;;;-0.50;99.90;;;;;;5065316;28;20041;-75
2021/12/22 01:07:39;;;;;;;16.02;11.25;;;-0.50;99.90;;;;;;5067666;28;20075;-76
2021/12/22 01:10:06;;;;;;;16.42;11.85;;;-0.60;99.90;;;;;;5069783;28;20032;-76
2021/12/22 01:12:32;;;;;;;17.27;11.80;;;-0.50;99.90;;;;;;5067637;28;20047;-75
2021/12/22 01:14:57;;;;;;;15.57;11.25;;;-0.60;99.90;;;;;;5069677;28;20040;-75
2021/12/22 01:17:23;;;;;;;14.25;11.07;;;-0.60;99.90;;;;;;5063151;28;20059;-75
2021/12/22 01:20:13;;;;;;;17.50;11.95;;;-0.60;99.90;;;;;;5070891;28;20616;-75
2021/12/22 01:25:08;;;;;;;14.60;11.75;;;-0.70;99.90;;;;;;5067765;28;20048;-75
2021/12/22 01:27:38;;;;;;;17.90;11.70;;;-0.70;99.90;;;;;;5067721;28;20071;-75
2021/12/22 01:30:08;;;;;;;15.95;10.52;;;-0.70;99.90;;;;;;5065422;28;20133;-76
2021/12/22 01:32:34;;;;;;;14.93;11.30;;;-0.70;99.90;;;;;;5065162;28;20204;-75
2021/12/22 01:35:00;;;;;;;16.17;11.57;;;-0.80;99.90;;;;;;5072260;28;20112;-75
2021/12/22 01:37:26;;;;;;;15.23;11.45;;;-0.80;99.90;;;;;;5065901;28;20158;-76
2021/12/22 01:39:52;;;;;;;18.38;11.40;;;-0.80;99.90;;;;;;5069237;28;20032;-75
2021/12/22 01:42:18;;;;;;;21.05;13.35;;;-0.80;99.90;;;;;;5069168;28;20516;-75
2021/12/22 01:45:14;;;;;;;15.75;11.55;;;-0.90;99.90;;;;;;5067678;28;20145;-75
2021/12/22 01:50:44;;;;;;;17.17;11.52;;;-0.90;99.90;;;;;;5069561;28;20144;-76
2021/12/22 01:53:31;;;;;;;15.85;11.73;;;-1.00;99.90;;;;;;5068509;28;20056;-75
2021/12/22 01:56:38;;;;;;;15.95;11.25;;;-1.00;99.90;;;;;;5064294;28;20128;-75
2021/12/22 01:59:00;;;;;;;17.40;12.10;;;-1.00;99.90;;;;;;5065470;28;20049;-75
2021/12/22 02:01:27;;;;;;;15.13;11.52;;;-1.00;99.90;;;;;;5064915;28;20079;-76
2021/12/22 02:03:54;;;;;;;17.27;12.07;;;-1.10;99.90;;;;;;5065980;28;20041;-75
2021/12/22 02:06:20;;;;;;;18.35;12.20;;;-1.10;99.90;;;;;;5066588;28;20051;-75
2021/12/22 02:08:46;;;;;;;14.65;11.20;;;-1.10;99.90;;;;;;5067872;28;20037;-75
2021/12/22 02:11:14;;;;;;;15.43;11.93;;;-1.10;99.90;;;;;;5067743;28;20043;-75
2021/12/22 02:13:44;;;;;;;14.82;11.18;;;-1.10;99.90;;;;;;5071599;28;20036;-75
2021/12/22 02:16:14;;;;;;;16.33;11.48;;;-1.10;99.90;;;;;;5067157;28;20048;-75
2021/12/22 02:18:45;;;;;;;19.25;11.45;;;-1.10;99.90;;;;;;5067115;28;20047;-75
2021/12/22 02:21:12;;;;;;;15.68;11.35;;;-1.10;99.90;;;;;;5065397;28;20404;-75
2021/12/22 02:23:38;;;;;;;18.73;12.20;;;-1.10;99.90;;;;;;5066922;28;20032;-76
2021/12/22 02:26:21;;;;;;;16.33;11.20;;;-1.10;99.90;;;;;;5068233;28;20056;-76
2021/12/22 02:28:56;;;;;;;14.73;11.00;;;-1.10;99.90;;;;;;5065450;28;20127;-76
2021/12/22 02:31:22;;;;;;;15.93;11.82;;;-1.10;99.90;;;;;;5064991;28;20049;-76
2021/12/22 02:33:49;;;;;;;15.15;11.63;;;-1.10;99.90;;;;;;5058009;28;20111;-76
2021/12/22 02:38:48;;;;;;;18.92;11.90;;;-1.20;99.90;;;;;;5069356;28;20048;-76
2021/12/22 02:41:15;;;;;;;16.10;12.25;;;-1.20;99.90;;;;;;5062251;28;20047;-76
2021/12/22 02:43:52;;;;;;;16.27;12.02;;;-1.30;99.90;;;;;;5066707;28;20086;-76
2021/12/22 02:46:21;;;;;;;15.63;11.80;;;-1.30;99.90;;;;;;5067994;28;20052;-76
2021/12/22 02:48:48;;;;;;;14.82;11.55;;;-1.30;99.90;;;;;;5060913;28;20408;-76
2021/12/22 02:51:14;;;;;;;16.15;11.73;;;-1.30;99.90;;;;;;5062077;28;20099;-76
2021/12/22 02:53:45;;;;;;;16.95;11.98;;;-1.30;99.90;;;;;;5066223;28;20099;-76
2021/12/22 02:56:38;;;;;;;19.42;11.98;;;-1.30;99.90;;;;;;5065294;28;20485;-76
2021/12/22 02:59:04;;;;;;;16.98;12.07;;;-1.30;99.90;;;;;;5066931;28;20048;-76
2021/12/22 03:04:04;;;;;;;17.98;13.05;;;-1.30;99.90;;;;;;5069075;28;20048;-76
2021/12/22 03:06:39;;;;;;;20.35;13.10;;;-1.40;99.90;;;;;;5067440;28;20048;-76
2021/12/22 03:09:21;;;;;;;15.30;12.95;;;-1.40;99.90;;;;;;5066206;28;20554;-76
2021/12/22 03:11:47;;;;;;;17.58;13.20;;;-1.30;99.90;;;;;;5065804;28;20510;-76
2021/12/22 03:14:15;;;;;;;16.95;13.63;;;-1.30;99.90;;;;;;5067450;28;20400;-76
2021/12/22 03:16:42;;;;;;;18.13;13.45;;;-1.30;99.90;;;;;;5067391;28;20040;-76
2021/12/22 03:19:10;;;;;;;17.63;14.07;;;-1.30;99.90;;;;;;5066648;28;20049;-76
2021/12/22 03:21:37;;;;;;;20.30;14.52;;;-1.30;99.90;;;;;;5066091;28;20040;-76
2021/12/22 03:24:03;;;;;;;19.20;13.73;;;-1.30;99.90;;;;;;5064960;28;20048;-76
2021/12/22 03:26:29;;;;;;;18.05;13.63;;;-1.30;99.90;;;;;;5063974;28;20041;-76
2021/12/22 03:28:58;;;;;;;20.75;14.98;;;-1.30;99.90;;;;;;5061466;28;21347;-76
2021/12/22 03:31:23;;;;;;;20.08;14.60;;;-1.30;99.90;;;;;;5068130;28;20044;-76
2021/12/22 03:33:49;;;;;;;23.02;15.77;;;-1.30;99.90;;;;;;5068808;28;20436;-76
2021/12/22 03:36:14;;;;;;;19.52;14.57;;;-1.20;99.90;;;;;;5069019;28;20072;-76
2021/12/22 03:38:40;;;;;;;20.00;14.60;;;-1.20;99.90;;;;;;5062392;28;20040;-76
2021/12/22 03:41:08;;;;;;;18.83;14.95;;;-1.30;99.90;;;;;;5066451;28;20037;-76
2021/12/22 03:43:34;;;;;;;23.20;15.52;;;-1.20;99.90;;;;;;5064414;28;20036;-76
2021/12/22 03:46:00;;;;;;;23.45;16.25;;;-1.20;99.90;;;;;;5070177;28;20044;-76
2021/12/22 03:48:26;;;;;;;18.60;14.77;;;-1.20;99.90;;;;;;5060751;28;21214;-76
2021/12/22 03:50:53;;;;;;;23.27;16.77;;;-1.30;99.90;;;;;;5064125;28;20070;-76
2021/12/22 03:53:18;;;;;;;23.10;15.73;;;-1.30;99.90;;;;;;5065915;28;20067;-76
2021/12/22 03:55:44;;;;;;;21.77;15.70;;;-1.20;99.90;;;;;;5062771;28;20032;-76
2021/12/22 03:58:10;;;;;;;22.73;15.45;;;-1.20;99.90;;;;;;5064391;28;20052;-76
2021/12/22 04:00:38;;;;;;;21.35;15.75;;;-1.30;99.90;;;;;;5069667;28;20032;-76
2021/12/22 04:03:04;;;;;;;23.02;16.63;;;-1.20;99.90;;;;;;5066904;28;20057;-76
2021/12/22 04:05:31;;;;;;;23.15;17.02;;;-1.30;99.90;;;;;;5067633;28;20060;-75
2021/12/22 04:07:57;;;;;;;22.00;16.33;;;-1.20;99.90;;;;;;5066171;28;20395;-76
2021/12/22 04:10:24;;;;;;;22.23;16.50;;;-1.30;99.90;;;;;;5064355;28;20041;-76
2021/12/22 04:12:54;;;;;;;23.77;16.60;;;-1.30;99.90;;;;;;5064933;28;20488;-76
2021/12/22 04:15:21;;;;;;;22.67;16.95;;;-1.30;99.90;;;;;;5066425;28;20053;-76
2021/12/22 04:17:47;;;;;;;21.80;15.70;;;-1.30;99.90;;;;;;5066425;28;20114;-76
2021/12/22 04:20:13;;;;;;;21.33;16.80;;;-1.30;99.90;;;;;;5064462;28;20476;-75
2021/12/22 04:22:39;;;;;;;23.50;16.60;;;-1.40;99.90;;;;;;5064929;28;20052;-76
2021/12/22 04:25:07;;;;;;;24.00;16.55;;;-1.30;99.90;;;;;;5059389;28;20075;-76
2021/12/22 04:27:33;;;;;;;24.35;18.20;;;-1.40;99.90;;;;;;5065311;28;20114;-75
2021/12/22 04:29:59;;;;;;;21.92;17.02;;;-1.40;99.90;;;;;;5063090;28;20083;-75
2021/12/22 04:32:24;;;;;;;23.50;17.00;;;-1.40;99.90;;;;;;5062970;28;20051;-76
2021/12/22 04:34:50;;;;;;;23.85;16.83;;;-1.30;99.90;;;;;;5067729;28;20052;-75
2021/12/22 04:37:18;;;;;;;22.55;16.17;;;-1.40;99.90;;;;;;5067193;28;20472;-76
2021/12/22 04:39:44;;;;;;;24.25;17.23;;;-1.40;99.90;;;;;;5063998;28;20045;-75
2021/12/22 04:42:09;;;;;;;25.02;17.35;;;-1.40;99.90;;;;;;5067229;28;20495;-75
2021/12/22 04:44:35;;;;;;;23.58;17.08;;;-1.40;99.90;;;;;;5062949;28;20468;-76
2021/12/22 04:47:01;;;;;;;23.20;17.25;;;-1.40;99.90;;;;;;5064332;28;20037;-76
2021/12/22 04:49:26;;;;;;;22.58;17.50;;;-1.40;99.90;;;;;;5059221;28;20075;-75
2021/12/22 04:51:54;;;;;;;20.63;16.55;;;-1.40;99.90;;;;;;5067121;28;20076;-75
2021/12/22 04:56:52;;;;;;;24.35;17.90;;;-1.40;99.90;;;;;;5067151;28;20055;-75
2021/12/22 04:59:18;;;;;;;28.25;16.98;;;-1.40;99.90;;;;;;5067481;28;20053;-75
2021/12/22 05:01:53;;;;;;;26.20;17.15;;;-1.40;99.90;;;;;;5079220;28;20059;-75
2021/12/22 05:04:18;;;;;;;22.77;17.20;;;-1.40;99.90;;;;;;5063127;28;20090;-75
2021/12/22 05:06:44;;;;;;;24.30;18.00;;;-1.50;99.90;;;;;;5062174;28;20048;-75
2021/12/22 05:09:10;;;;;;;23.17;17.48;;;-1.40;99.90;;;;;;5065572;28;20075;-75
2021/12/22 05:11:35;;;;;;;24.73;17.92;;;-1.40;99.90;;;;;;5066857;28;20041;-75
2021/12/22 05:14:03;;;;;;;23.10;17.52;;;-1.40;99.90;;;;;;5061727;28;20123;-75
2021/12/22 05:16:30;;;;;;;24.60;17.30;;;-1.50;99.90;;;;;;5060209;28;20064;-75
2021/12/22 05:18:59;;;;;;;27.95;17.38;;;-1.50;99.90;;;;;;5064843;28;20116;-75
2021/12/22 05:21:25;;;;;;;24.50;17.40;;;-1.50;99.90;;;;;;5061701;28;20502;-75
2021/12/22 05:23:51;;;;;;;24.13;17.55;;;-1.50;99.90;;;;;;5063765;28;20048;-75
2021/12/22 05:26:20;;;;;;;22.98;17.05;;;-1.50;99.90;;;;;;5062541;28;20041;-75
2021/12/22 05:28:46;;;;;;;22.65;17.17;;;-1.50;99.90;;;;;;5064188;28;20052;-75
2021/12/22 05:31:12;;;;;;;30.17;17.35;;;-1.60;99.90;;;;;;5067751;28;20045;-75
2021/12/22 05:33:38;;;;;;;23.85;16.88;;;-1.60;99.90;;;;;;5063476;28;20084;-74
2021/12/22 05:36:04;;;;;;;25.92;18.20;;;-1.60;99.90;;;;;;5058365;28;20041;-74
2021/12/22 05:38:29;;;;;;;27.40;17.77;;;-1.60;99.90;;;;;;5066808;28;20397;-75
2021/12/22 05:40:55;;;;;;;27.15;17.48;;;-1.60;99.90;;;;;;5062557;28;20049;-75
2021/12/22 05:43:21;;;;;;;26.50;16.40;;;-1.60;99.90;;;;;;5065420;28;20043;-74
2021/12/22 05:45:47;;;;;;;24.23;17.33;;;-1.70;99.90;;;;;;5066576;28;20036;-74
2021/12/22 05:48:12;;;;;;;25.30;17.70;;;-1.70;99.90;;;;;;5068679;28;20044;-75
2021/12/22 05:50:38;;;;;;;26.05;16.83;;;-1.70;99.90;;;;;;5068468;28;20480;-74
2021/12/22 05:53:04;;;;;;;24.00;16.73;;;-1.70;99.90;;;;;;5069360;28;20037;-74
2021/12/22 05:55:29;;;;;;;26.42;17.27;;;-1.70;99.90;;;;;;5062724;28;20053;-74
2021/12/22 05:57:55;;;;;;;24.33;16.88;;;-1.70;99.90;;;;;;5068521;28;20032;-75
2021/12/22 06:00:22;;;;;;;24.67;18.33;;;-1.70;99.90;;;;;;5069630;28;20040;-74
2021/12/22 06:02:48;;;;;;;24.65;18.08;;;-1.70;99.90;;;;;;5066312;28;20397;-74
2021/12/22 06:05:14;;;;;;;25.80;18.30;;;-1.70;99.90;;;;;;5067460;28;20058;-74
2021/12/22 06:07:39;;;;;;;27.38;17.77;;;-1.70;99.90;;;;;;5067276;28;20052;-74
2021/12/22 06:10:06;;;;;;;32.17;18.67;;;-1.70;99.90;;;;;;5068928;28;20032;-74
2021/12/22 06:12:32;;;;;;;28.00;19.10;;;;;;;;;;5066686;28;20040;-74
2021/12/22 06:14:58;;;;;;;25.00;19.08;;;;;;;;;;5070742;28;20041;-74
2021/12/22 06:17:24;;;;;;;26.90;18.45;;;;;;;;;;5067276;28;20091;-74
2021/12/22 06:19:50;;;;;;;25.95;18.30;;;;;;;;;;5069865;28;20056;-74
2021/12/22 06:22:16;;;;;;;27.50;17.60;;;;;;;;;;5066951;28;20049;-74
2021/12/22 06:24:42;;;;;;;26.35;18.15;;;;;;;;;;5064820;28;20110;-74
2021/12/22 06:27:08;;;;;;;29.40;18.77;;;;;;;;;;5069277;28;20053;-74
2021/12/22 06:29:34;;;;;;;25.60;18.20;;;-1.80;99.90;;;;;;5064983;28;20071;-74
2021/12/22 06:31:59;;;;;;;28.48;18.45;;;-1.70;99.90;;;;;;5063658;28;20516;-74
2021/12/22 06:34:25;;;;;;;28.85;18.25;;;-1.70;99.90;;;;;;5067480;28;20049;-74
2021/12/22 06:36:51;;;;;;;28.40;18.15;;;-1.70;99.90;;;;;;5065768;28;20460;-74
2021/12/22 06:39:18;;;;;;;28.52;19.00;;;-1.70;99.90;;;;;;5066111;28;20041;-74
2021/12/22 06:41:44;;;;;;;24.65;17.77;;;;;;;;;;5064658;28;20049;-74
2021/12/22 06:44:10;;;;;;;26.98;17.63;;;;;;;;;;5066444;28;20081;-74
2021/12/22 06:46:36;;;;;;;25.77;18.67;;;;;;;;;;5067320;28;20396;-74
2021/12/22 06:49:02;;;;;;;23.77;17.30;;;;;;;;;;5065910;28;20052;-74
2021/12/22 06:51:28;;;;;;;27.88;18.92;;;;;;;;;;5062322;28;20513;-74
2021/12/22 06:53:54;;;;;;;26.77;17.70;;;;;;;;;;5065096;28;20165;-74
2021/12/22 06:56:20;;;;;;;29.42;19.35;;;;;;;;;;5069986;28;20079;-74
2021/12/22 06:58:46;;;;;;;30.35;19.17;;;;;;;;;;5067680;28;20044;-73
2021/12/22 07:01:17;;;;;;;26.00;18.13;;;;;;;;;;5066479;28;20123;-74
2021/12/22 07:03:43;;;;;;;30.45;19.55;;;;;;;;;;5063835;28;21767;-74
2021/12/22 07:06:09;;;;;;;83.03;29.60;;;;;;;;;;5067109;28;20076;-74
2021/12/22 07:08:35;;;;;;;25.08;17.17;;;;;;;;;;5066352;28;20052;-74
2021/12/22 07:11:01;;;;;;;31.58;18.73;;;;;;;;;;5072226;28;20059;-73
2021/12/22 07:13:28;;;;;;;23.50;17.48;;;;;;;;;;5066411;28;20048;-74
2021/12/22 07:15:54;;;;;;;25.80;17.15;;;;;;;;;;5063506;28;20122;-74
2021/12/22 07:18:20;;;;;;;25.75;17.70;;;;;;;;;;5068945;28;20048;-74
2021/12/22 07:20:46;;;;;;;24.90;17.92;;;;;;;;;;5060854;28;20051;-74
2021/12/22 07:23:12;;;;;;;28.85;18.10;;;;;;;;;;5064667;28;20048;-74
2021/12/22 07:25:38;;;;;;;27.02;18.55;;;;;;;;;;5066952;28;20404;-74
2021/12/22 07:28:04;;;;;;;29.55;17.65;;;;;;;;;;5064881;28;20178;-74
2021/12/22 07:30:30;;;;;;;27.15;17.50;;;;;;;;;;5068089;28;20048;-74
2021/12/22 07:32:59;;;;;;;26.23;18.05;;;-1.70;99.90;;;;;;5070052;28;20040;-74
2021/12/22 07:35:33;;;;;;;26.27;17.58;;;-1.80;99.90;;;;;;5064981;28;20040;-74
2021/12/22 07:38:24;;;;;;;28.58;17.77;;;-1.80;99.90;;;;;;5062781;28;20111;-74
2021/12/22 07:40:56;;;;;;;28.13;18.52;;;-1.80;99.90;;;;;;5067498;28;20134;-74
2021/12/22 07:43:22;;;;;;;29.42;16.98;;;-1.80;99.90;;;;;;5069026;28;20044;-74
2021/12/22 07:45:48;;;;;;;26.98;17.15;;;-1.90;99.90;;;;;;5069321;28;20454;-74
2021/12/22 07:48:14;;;;;;;26.10;17.58;;;-1.90;99.90;;;;;;5063493;28;20036;-74
2021/12/22 07:50:39;;;;;;;29.63;18.40;;;-1.90;99.90;;;;;;5068099;28;20070;-74
2021/12/22 07:53:05;;;;;;;28.65;18.70;;;-1.90;99.90;;;;;;5065855;28;20040;-73
2021/12/22 07:55:31;;;;;;;28.48;18.75;;;-1.90;99.90;;;;;;5063115;28;20045;-73
2021/12/22 07:57:56;;;;;;;26.90;17.63;;;-2.00;99.90;;;;;;5067939;28;20534;-73
2021/12/22 08:00:22;;;;;;;30.60;18.73;;;-2.00;99.90;;;;;;5063725;28;20450;-74
2021/12/22 08:02:47;;;;;;;27.48;18.23;;;-1.90;99.90;;;;;;5068513;28;20057;-74
2021/12/22 08:05:13;;;;;;;25.67;17.00;;;-1.90;99.90;;;;;;5010010;28;20077;-73
2021/12/22 08:07:39;;;;;;;23.63;16.17;;;-2.00;99.90;;;;;;5050021;28;20080;-73
2021/12/22 08:10:06;;;;;;;29.23;17.23;;;-2.00;99.90;;;;;;5061689;28;20483;-74
2021/12/22 08:12:32;;;;;;;27.13;16.67;;;-2.00;99.90;;;;;;5064271;28;20412;-73
2021/12/22 08:14:58;;;;;;;27.13;19.30;;;-2.00;99.90;;;;;;5062496;28;20084;-73
2021/12/22 08:17:27;;;;;;;25.35;16.77;;;-2.00;99.90;;;;;;5069233;28;20064;-74
2021/12/22 08:19:53;;;;;;;23.40;17.25;;;-2.10;99.90;;;;;;5056910;28;20045;-74
2021/12/22 08:22:19;;;;;;;26.65;18.27;;;-2.10;99.90;;;;;;5056450;28;20151;-74
2021/12/22 08:24:45;;;;;;;27.23;18.25;;;-2.00;99.90;;;;;;5057275;28;20875;-75
2021/12/22 08:27:11;;;;;;;29.50;17.85;;;-2.10;99.90;;;;;;5068819;28;20044;-74
2021/12/22 08:29:41;;;;;;;28.63;19.33;;;-2.00;99.90;;;;;;5057637;28;20450;-74
2021/12/22 08:32:07;;;;;;;26.13;18.85;;;-2.10;99.90;;;;;;5054197;28;20504;-74
2021/12/22 08:34:37;;;;;;;28.40;18.58;;;-2.10;99.90;;;;;;5053729;28;20049;-73
2021/12/22 08:39:48;;;;;;;28.45;18.27;;;-2.00;99.90;;;;;;5063913;28;20420;-73
2021/12/22 08:42:14;;;;;;;24.83;15.77;;;-2.00;99.90;;;;;;5063609;28;20056;-74
2021/12/22 08:44:40;;;;;;;26.83;17.80;;;-2.00;99.90;;;;;;5058831;28;20122;-74
2021/12/22 08:47:06;;;;;;;24.85;16.40;;;-2.00;99.90;;;;;;5064628;28;20503;-74
2021/12/22 08:49:33;;;;;;;27.48;16.85;;;-1.90;99.90;;;;;;5060771;28;20040;-74
2021/12/22 08:51:59;;;;;;;26.48;17.88;;;;;;;;;;5095637;28;20047;-78
2021/12/22 08:54:25;;;;;;;28.02;17.90;;;;;;;;;;5066074;28;20079;-74
2021/12/22 08:56:51;;;;;;;26.50;16.92;;;;;;;;;;5061542;28;20083;-74
2021/12/22 08:59:17;;;;;;;26.42;17.92;;;;;;;;;;5066286;28;20044;-73
2021/12/22 09:01:44;;;;;;;27.80;17.83;;;;;;;;;;5058949;28;20049;-74
2021/12/22 09:04:10;;;;;;;25.08;17.88;;;;;;;;;;5054720;28;20063;-74
2021/12/22 09:06:36;;;;;;;26.00;17.15;;;;;;;;;;5055959;28;20439;-73
2021/12/22 09:09:04;;;;;;;26.60;17.73;;;;;;;;;;5058470;28;20126;-73
2021/12/22 09:11:30;;;;;;;25.08;17.30;;;;;;;;;;5059835;28;20036;-74
2021/12/22 09:13:56;;;;;;;24.25;17.65;;;;;;;;;;5057782;28;20124;-74
2021/12/22 09:16:22;;;;;;;28.40;18.25;;;-1.80;99.90;;;;;;5066819;28;20142;-74
2021/12/22 09:18:48;;;;;;;25.52;17.70;;;-1.50;99.90;;;;;;5061192;28;21293;-74
2021/12/22 09:21:16;;;;;;;29.83;18.67;;;-1.50;99.90;;;;;;5060459;28;20052;-74
2021/12/22 09:23:42;;;;;;;28.98;18.00;;;-1.40;99.90;;;;;;5061093;28;20118;-74
2021/12/22 09:26:08;;;;;;;27.17;17.17;;;-1.40;99.90;;;;;;5059742;28;20040;-75
2021/12/22 09:28:35;;;;;;;28.60;18.10;;;-1.30;99.90;;;;;;5072514;28;20047;-75
2021/12/22 09:31:01;;;;;;;29.80;17.10;;;-1.30;99.90;;;;;;5058908;28;20047;-75
2021/12/22 09:33:27;;;;;;;26.58;17.65;;;-1.20;99.90;;;;;;5063154;28;20401;-75
2021/12/22 09:35:53;;;;;;;26.40;17.42;;;-1.20;99.90;;;;;;5092665;28;20110;-75
2021/12/22 09:38:19;;;;;;;26.73;17.75;;;;;;;;;;5061039;28;20086;-75
2021/12/22 09:40:46;;;;;;;26.77;17.35;;;-1.10;99.90;;;;;;5061617;28;20468;-75
2021/12/22 09:43:12;;;;;;;24.25;17.58;;;-1.00;99.90;;;;;;5063399;28;20052;-75
2021/12/22 09:45:44;;;;;;;28.38;18.25;;;-0.90;99.90;;;;;;5061480;28;20048;-75
2021/12/22 09:53:19;;;;;;;27.17;17.48;;;-0.80;99.90;;;;;;5062559;28;20404;-75
2021/12/22 09:55:46;;;;;;;26.20;17.58;;;-0.80;99.90;;;;;;5056267;28;20096;-75
2021/12/22 09:58:12;;;;;;;26.92;17.20;;;-0.70;99.90;;;;;;5063949;28;20045;-75
2021/12/22 10:00:39;;;;;;;25.23;17.73;;;-0.70;99.90;;;;;;5063114;28;20458;-75
2021/12/22 10:03:07;;;;;;;28.70;18.48;;;-0.60;99.90;;;;;;5059176;28;20411;-75
2021/12/22 10:05:34;;;;;;;27.70;18.35;;;-0.60;99.90;;;;;;5059809;28;20434;-75
2021/12/22 10:08:20;;;;;;;29.10;19.40;;;-0.60;99.90;;;;;;5063006;28;22395;-75
2021/12/22 10:10:51;;;;;;;28.02;18.75;;;-0.60;99.90;;;;;;5061606;28;20058;-75
2021/12/22 10:13:23;;;;;;;29.70;19.02;;;-0.50;99.90;;;;;;5066499;28;20066;-75
2021/12/22 10:15:49;;;;;;;27.15;18.33;;;-0.50;99.90;;;;;;5056150;28;20076;-76
2021/12/22 10:18:19;;;;;;;28.70;18.63;;;-0.40;99.90;;;;;;5060178;28;20091;-75
2021/12/22 10:20:47;;;;;;;28.25;18.15;;;-0.40;99.90;;;;;;5058433;28;20043;-75
2021/12/22 10:23:25;;;;;;;27.38;18.90;;;-0.40;99.90;;;;;;5059578;28;20102;-76
2021/12/22 10:25:59;;;;;;;29.67;18.25;;;-0.30;99.90;;;;;;5058865;28;20075;-75
2021/12/22 10:28:28;;;;;;;28.00;18.10;;;-0.30;99.90;;;;;;5059240;28;20048;-76
2021/12/22 10:30:58;;;;;;;28.60;18.45;;;-0.30;99.90;;;;;;5059141;28;20476;-76
2021/12/22 10:33:26;;;;;;;27.50;18.17;;;-0.40;99.90;;;;;;5060596;28;20126;-76
2021/12/22 10:35:55;;;;;;;29.25;17.45;;;-0.30;99.90;;;;;;5059995;28;20036;-76
2021/12/22 10:38:23;;;;;;;26.80;17.88;;;-0.30;99.90;;;;;;5058432;28;20754;-76
2021/12/22 10:40:51;;;;;;;29.63;18.80;;;-0.30;99.90;;;;;;5058903;28;20547;-76
2021/12/22 10:43:23;;;;;;;32.25;18.40;;;-0.20;99.90;;;;;;5063726;28;20143;-76
2021/12/22 10:45:56;;;;;;;27.50;18.35;;;-0.20;99.90;;;;;;5058021;28;20044;-76
2021/12/22 10:51:10;;;;;;;24.67;17.75;;;-0.20;99.90;;;;;;5061810;28;20653;-76
2021/12/22 10:53:47;;;;;;;33.65;20.48;;;-0.10;99.90;;;;;;5061407;28;20052;-76
2021/12/22 10:56:44;;;;;;;27.58;18.15;;;-0.10;99.90;;;;;;5090603;28;20053;-76
2021/12/22 10:59:16;;;;;;;24.67;17.55;;;-0.10;99.90;;;;;;5057484;28;20052;-76
2021/12/22 11:02:08;;;;;;;26.83;18.13;;;0.00;99.90;;;;;;5059294;28;20057;-76
2021/12/22 11:04:37;;;;;;;27.63;18.25;;;0.00;99.90;;;;;;5059373;28;20403;-76
2021/12/22 11:07:09;;;;;;;26.80;18.58;;;0.10;99.90;;;;;;5056369;28;20042;-76
2021/12/22 11:09:36;;;;;;;30.35;18.75;;;0.20;99.90;;;;;;5058957;28;20044;-76
2021/12/22 11:12:04;;;;;;;27.67;17.90;;;0.30;99.90;;;;;;5062459;28;20397;-76
2021/12/22 11:14:37;;;;;;;28.50;19.02;;;0.30;99.90;;;;;;5059221;28;20044;-76
2021/12/22 11:17:19;;;;;;;26.52;18.27;;;0.30;99.90;;;;;;5060050;28;20052;-76
2021/12/22 11:19:54;;;;;;;26.00;18.38;;;0.40;99.90;;;;;;5062747;28;20044;-76
2021/12/22 11:22:26;;;;;;;26.38;18.85;;;0.40;99.90;;;;;;5065356;28;20040;-76
2021/12/22 11:24:55;;;;;;;24.95;17.38;;;0.50;99.90;;;;;;5061849;28;20075;-77
2021/12/22 11:27:28;;;;;;;30.20;18.27;;;0.50;99.90;;;;;;5067271;28;20083;-77
2021/12/22 11:30:04;;;;;;;24.75;18.30;;;0.60;99.90;;;;;;5059032;28;20565;-77
2021/12/22 11:32:34;;;;;;;27.83;18.90;;;0.70;99.90;;;;;;5064396;28;20029;-77
2021/12/22 11:35:07;;;;;;;25.45;17.77;;;0.70;99.90;;;;;;5058899;28;20040;-77
2021/12/22 11:37:35;;;;;;;25.02;17.90;;;0.80;99.90;;;;;;5059197;28;20044;-77
2021/12/22 11:40:03;;;;;;;25.63;18.65;;;0.80;99.90;;;;;;5058503;28;20087;-77
2021/12/22 11:42:38;;;;;;;30.02;19.75;;;0.90;99.90;;;;;;5057161;28;20131;-77
2021/12/22 11:45:14;;;;;;;30.70;19.73;;;0.90;99.90;;;;;;5060412;28;20048;-77
2021/12/22 11:47:45;;;;;;;26.08;19.08;;;1.00;99.90;;;;;;5058494;28;20040;-77
2021/12/22 11:50:23;;;;;;;27.73;19.90;;;1.00;99.90;;;;;;5069882;28;20120;-77
2021/12/22 11:52:55;;;;;;;26.58;19.20;;;1.00;99.90;;;;;;5062531;28;20056;-76
2021/12/22 11:55:23;;;;;;;32.58;19.67;;;1.00;99.90;;;;;;5062831;28;20036;-75
2021/12/22 11:58:12;;;;;;;28.13;19.08;;;1.00;99.90;;;;;;5059120;28;20094;-77
2021/12/22 12:01:08;;;;;;;27.80;19.60;;;1.00;99.90;;;;;;5059397;28;20041;-77
2021/12/22 12:03:41;;;;;;;26.67;19.27;;;1.00;99.90;;;;;;5058558;28;20131;-76
2021/12/22 12:06:23;;;;;;;32.50;21.45;;;1.00;99.90;;;;;;5055888;28;20543;-76
2021/12/22 12:08:53;;;;;;;29.90;19.65;;;1.00;99.90;;;;;;5058747;28;20119;-76
2021/12/22 12:11:50;;;;;;;30.70;19.80;;;1.00;99.90;;;;;;5060707;28;20063;-76
2021/12/22 12:14:33;;;;;;;27.95;19.88;;;0.90;99.90;;;;;;5056375;28;20242;-76
2021/12/22 12:23:26;;;;;;;30.83;21.27;;;1.10;99.90;;;;;;5060369;28;20049;-74
2021/12/22 12:25:53;;;;;;;27.80;20.40;;;1.20;99.90;;;;;;5061762;28;20083;-74
2021/12/22 12:28:19;;;;;;;30.67;20.10;;;1.20;99.90;;;;;;5058571;28;20045;-74
2021/12/22 12:30:48;;;;;;;31.08;21.75;;;1.20;99.90;;;;;;5057403;28;20036;-74
2021/12/22 12:33:36;;;;;;;29.73;21.10;;;1.10;99.90;;;;;;5057077;28;20036;-74
2021/12/22 12:36:11;;;;;;;26.55;19.90;;;1.20;99.90;;;;;;5058279;28;20044;-74
2021/12/22 12:38:40;;;;;;;28.92;20.63;;;1.30;99.90;;;;;;5088761;28;20048;-74
2021/12/22 12:41:27;;;;;;;33.53;21.10;;;1.30;99.90;;;;;;5058603;28;20089;-73
2021/12/22 12:44:01;;;;;;;29.50;20.30;;;1.40;99.90;;;;;;5057631;28;20135;-74
2021/12/22 12:46:34;;;;;;;28.73;20.58;;;1.50;99.90;;;;;;5058331;28;20048;-74
2021/12/22 12:49:03;;;;;;;25.70;19.15;;;1.80;99.90;;;;;;5060077;28;20036;-74
2021/12/22 12:51:33;;;;;;;27.88;19.48;;;2.10;99.90;;;;;;5058120;28;20091;-74
2021/12/22 12:54:21;;;;;;;26.17;18.35;;;2.50;99.90;;;;;;5057916;28;20510;-74
2021/12/22 12:57:11;;;;;;;25.02;17.83;;;2.80;99.90;;;;;;5055787;28;20579;-74
2021/12/22 12:59:37;;;;;;;26.67;17.70;;;2.80;99.90;;;;;;5058584;28;20117;-74
2021/12/22 13:02:04;;;;;;;26.45;19.15;;;2.80;99.90;;;;;;5062681;28;20500;-74
2021/12/22 13:04:38;;;;;;;24.83;17.77;;;2.60;99.90;;;;;;5060646;28;20139;-74
2021/12/22 13:07:07;;;;;;;24.95;17.90;;;2.60;99.90;;;;;;5058525;28;20115;-74
2021/12/22 13:09:38;;;;;;;23.27;17.92;;;;;;;;;;5061917;28;20040;-74
2021/12/22 13:17:26;;;;;;;25.13;17.92;;;3.50;99.90;;;;;;5060543;28;20037;-74
2021/12/22 13:19:55;;;;;;;25.67;18.02;;;;;;;;;;5060071;28;20036;-74
2021/12/22 13:22:29;;;;;;;27.15;18.67;;;3.70;99.90;;;;;;5068275;28;20040;-74
2021/12/22 13:25:18;;;;;;;24.80;17.88;;;;;;;;;;5068030;28;20048;-74
2021/12/22 13:28:11;;;;;;;22.05;17.30;;;;;;;;;;5067772;28;20071;-74